createdAt,value
2023-04-29T00:02:18.237Z,100.00
2023-04-29T00:07:22.464Z,100.00
2023-04-29T00:12:28.254Z,100.00
2023-04-29T00:17:34.572Z,100.00
2023-04-29T00:22:37.740Z,100.00
2023-04-29T00:27:42.606Z,100.00
2023-04-29T00:32:46.799Z,100.00
2023-04-29T00:37:50.536Z,100.00
2023-04-29T00:42:55.066Z,100.00
2023-04-29T00:47:58.633Z,100.00
2023-04-29T00:53:02.342Z,100.00
2023-04-29T00:58:07.572Z,100.00
2023-04-29T01:03:11.998Z,100.00
2023-04-29T01:08:30.673Z,100.00
2023-04-29T01:13:44.541Z,100.00
2023-04-29T01:24:24.631Z,100.00
2023-04-29T01:29:35.219Z,100.00
2023-04-29T01:34:47.517Z,100.00
2023-04-29T01:40:01.953Z,100.00
2023-04-29T01:45:09.796Z,100.00
2023-04-29T01:50:13.050Z,100.00
2023-04-29T01:55:17.828Z,100.00
2023-04-29T02:00:22.677Z,100.00
2023-04-29T02:05:26.992Z,100.00
2023-04-29T02:10:31.579Z,100.00
2023-04-29T02:15:37.636Z,100.00
2023-04-29T02:20:41.141Z,100.00
2023-04-29T02:25:45.731Z,100.00
2023-04-29T02:30:49.013Z,100.00
2023-04-29T02:35:52.290Z,100.00
2023-04-29T02:40:57.335Z,100.00
2023-04-29T02:46:00.778Z,100.00
2023-04-29T02:51:04.417Z,100.00
2023-04-29T02:56:09.230Z,100.00
2023-04-29T03:01:12.612Z,100.00
2023-04-29T03:06:16.097Z,100.00
2023-04-29T03:11:21.015Z,100.00
2023-04-29T03:16:24.611Z,100.00
2023-04-29T03:21:28.108Z,100.00
2023-04-29T03:26:32.792Z,100.00
2023-04-29T03:31:36.416Z,100.00
2023-04-29T03:36:39.608Z,100.00
2023-04-29T03:41:44.768Z,100.00
2023-04-29T03:46:47.972Z,100.00
2023-04-29T03:51:51.628Z,100.00
2023-04-29T03:56:56.552Z,100.00
2023-04-29T04:01:59.769Z,100.00
2023-04-29T04:07:04.049Z,100.00
2023-04-29T04:12:09.266Z,100.00
2023-04-29T04:17:12.495Z,100.00
2023-04-29T04:22:17.391Z,100.00
2023-04-29T04:27:22.168Z,100.00
2023-04-29T04:32:25.380Z,100.00
2023-04-29T04:37:28.771Z,100.00
2023-04-29T04:42:33.250Z,100.00
2023-04-29T04:47:36.569Z,100.00
2023-04-29T04:52:39.833Z,100.00
2023-04-29T04:57:44.820Z,100.00
2023-04-29T05:02:48.237Z,100.00
2023-04-29T05:07:51.616Z,100.00
2023-04-29T05:12:56.131Z,100.00
2023-04-29T05:17:59.413Z,100.00
2023-04-29T05:23:02.872Z,100.00
2023-04-29T05:28:09.060Z,100.00
2023-04-29T05:33:12.577Z,100.00
2023-04-29T05:38:15.882Z,100.00
2023-04-29T05:43:20.498Z,100.00
2023-04-29T05:48:25.106Z,100.00
2023-04-29T05:53:28.483Z,100.00
2023-04-29T05:58:38.471Z,100.00
2023-04-29T06:03:43.209Z,100.00
2023-04-29T06:08:46.862Z,100.00
2023-04-29T06:13:51.774Z,100.00
2023-04-29T06:18:56.210Z,100.00
2023-04-29T06:24:02.549Z,100.00
2023-04-29T06:29:07.153Z,100.00
2023-04-29T06:34:10.855Z,100.00
2023-04-29T06:39:14.717Z,100.00
2023-04-29T06:44:20.257Z,100.00
2023-04-29T06:49:23.871Z,100.00
2023-04-29T06:54:28.839Z,100.00
2023-04-29T06:59:33.807Z,100.00
2023-04-29T07:04:37.760Z,100.00
2023-04-29T07:09:41.144Z,100.00
2023-04-29T07:14:45.904Z,100.00
2023-04-29T07:19:49.033Z,100.00
2023-04-29T07:24:55.220Z,100.00
2023-04-29T07:30:01.359Z,100.00
2023-04-29T07:35:06.120Z,100.00
2023-04-29T07:40:10.342Z,100.00
2023-04-29T07:45:15.251Z,100.00
2023-04-29T07:50:18.465Z,100.00
2023-04-29T07:55:21.997Z,100.00
2023-04-29T08:00:41.742Z,100.00
2023-04-29T08:05:45.293Z,100.00
2023-04-29T08:10:48.527Z,100.00
2023-04-29T08:15:53.833Z,100.00
2023-04-29T08:20:57.290Z,100.00
2023-04-29T08:26:00.523Z,100.00
2023-04-29T08:31:07.204Z,100.00
2023-04-29T08:36:10.736Z,100.00
2023-04-29T08:41:25.545Z,100.00
2023-04-29T08:46:30.683Z,100.00
2023-04-29T08:51:34.789Z,100.00
2023-04-29T08:56:50.676Z,100.00
2023-04-29T09:01:55.683Z,100.00
2023-04-29T09:06:59.906Z,100.00
2023-04-29T09:12:03.171Z,100.00
2023-04-29T09:17:46.027Z,100.00
2023-04-29T09:22:50.195Z,100.00
2023-04-29T09:27:53.674Z,100.00
2023-04-29T09:33:31.602Z,100.00
2023-04-29T09:38:35.139Z,100.00
2023-04-29T09:43:38.906Z,100.00
2023-04-29T09:48:43.580Z,100.00
2023-04-29T09:53:46.990Z,100.00
2023-04-29T09:58:50.202Z,100.00
2023-04-29T10:03:56.554Z,100.00
2023-04-29T10:09:00.881Z,100.00
2023-04-29T10:14:07.146Z,100.00
2023-04-29T10:19:14.008Z,100.00
2023-04-29T10:24:19.319Z,100.00
2023-04-29T10:29:23.796Z,100.00
2023-04-29T10:34:29.976Z,100.00
2023-04-29T10:39:47.557Z,100.00
2023-04-29T10:45:19.828Z,100.00
2023-04-29T10:50:24.653Z,100.00
2023-04-29T10:55:27.896Z,100.00
2023-04-29T11:00:32.922Z,100.00
2023-04-29T11:05:38.780Z,100.00
2023-04-29T11:10:43.097Z,100.00
2023-04-29T11:15:46.701Z,100.00
2023-04-29T11:21:17.238Z,100.00
2023-04-29T11:26:21.994Z,100.00
2023-04-29T11:31:29.561Z,100.00
2023-04-29T11:36:35.168Z,100.00
2023-04-29T11:41:39.811Z,100.00
2023-04-29T11:46:43.373Z,100.00
2023-04-29T11:51:48.298Z,100.00
2023-04-29T11:56:51.500Z,100.00
2023-04-29T12:01:54.772Z,100.00
2023-04-29T12:07:23.677Z,100.00
2023-04-29T12:12:31.751Z,100.00
2023-04-29T12:17:36.593Z,100.00
2023-04-29T12:22:47.013Z,99.59
2023-04-29T12:27:50.177Z,99.33
2023-04-29T12:32:53.700Z,98.83
2023-04-29T12:38:00.834Z,97.42
2023-04-29T12:43:09.334Z,95.51
2023-04-29T12:48:22.077Z,93.63
2023-04-29T12:53:32.604Z,92.27
2023-04-29T12:58:36.051Z,90.08
2023-04-29T13:03:40.213Z,89.11
2023-04-29T13:08:44.984Z,87.42
2023-04-29T13:13:48.109Z,85.68
2023-04-29T13:19:05.217Z,86.05
2023-04-29T13:24:20.273Z,86.89
2023-04-29T13:29:24.167Z,86.09
2023-04-29T13:34:27.434Z,87.75
2023-04-29T13:39:32.202Z,86.48
2023-04-29T13:44:51.113Z,86.90
2023-04-29T14:00:37.413Z,86.40
2023-04-29T14:05:39.153Z,86.30
2023-04-29T14:10:43.929Z,85.49
2023-04-29T14:16:03.729Z,85.26
2023-04-29T14:21:07.216Z,84.92
2023-04-29T14:26:27.326Z,84.62
2023-04-29T14:31:35.463Z,83.75
2023-04-29T14:36:38.819Z,82.70
2023-04-29T14:41:43.445Z,81.82
2023-04-29T14:46:46.729Z,83.11
2023-04-29T14:51:50.218Z,82.32
2023-04-29T14:56:54.690Z,82.47
2023-04-29T15:01:59.727Z,83.02
2023-04-29T15:07:03.577Z,83.61
2023-04-29T15:12:08.444Z,83.15
2023-04-29T15:17:11.682Z,83.39
2023-04-29T15:22:14.829Z,83.56
2023-04-29T15:27:20.277Z,81.88
2023-04-29T15:32:24.708Z,81.44
2023-04-29T15:37:29.238Z,81.53
2023-04-29T15:42:34.126Z,81.97
2023-04-29T15:47:37.285Z,81.83
2023-04-29T15:52:41.842Z,82.45
2023-04-29T15:57:46.498Z,81.75
2023-04-29T16:02:49.879Z,81.44
2023-04-29T16:07:54.565Z,81.43
2023-04-29T16:12:59.096Z,81.82
2023-04-29T16:18:02.715Z,81.24
2023-04-29T16:23:06.578Z,81.39
2023-04-29T16:28:11.211Z,82.13
2023-04-29T16:33:16.422Z,82.53
2023-04-29T16:38:19.966Z,81.59
2023-04-29T16:43:24.530Z,81.18
2023-04-29T16:48:27.913Z,81.62
2023-04-29T16:53:31.454Z,80.77
2023-04-29T16:58:36.678Z,81.02
2023-04-29T17:03:40.734Z,80.98
2023-04-29T17:08:44.723Z,81.84
2023-04-29T17:13:50.649Z,82.38
2023-04-29T17:18:54.437Z,82.49
2023-04-29T17:23:58.931Z,82.84
2023-04-29T17:29:05.258Z,83.39
2023-04-29T17:34:18.461Z,82.80
2023-04-29T17:39:22.341Z,83.26
2023-04-29T17:44:28.200Z,83.18
2023-04-29T17:49:31.487Z,83.44
2023-04-29T17:54:35.022Z,82.95
2023-04-29T17:59:39.556Z,84.18
2023-04-29T18:04:43.178Z,84.87
2023-04-29T18:09:47.661Z,85.14
2023-04-29T18:14:53.025Z,84.88
2023-04-29T18:19:56.551Z,84.66
2023-04-29T18:25:00.370Z,85.21
2023-04-29T18:30:05.703Z,86.47
2023-04-29T18:35:10.743Z,86.30
2023-04-29T18:40:17.874Z,86.79
2023-04-29T18:45:23.573Z,87.34
2023-04-29T18:50:26.807Z,88.22
2023-04-29T18:55:33.584Z,88.36
2023-04-29T19:00:38.491Z,88.23
2023-04-29T19:05:42.107Z,88.48
2023-04-29T19:10:46.538Z,88.71
2023-04-29T19:15:53.637Z,88.64
2023-04-29T19:21:04.922Z,89.45
2023-04-29T19:26:09.669Z,89.76
2023-04-29T19:31:14.704Z,90.04
2023-04-29T19:36:18.145Z,89.38
2023-04-29T19:41:22.173Z,89.73
2023-04-29T19:46:26.726Z,89.70
2023-04-29T19:51:30.001Z,90.16
2023-04-29T19:56:34.004Z,90.67
2023-04-29T20:01:38.877Z,90.01
2023-04-29T20:06:42.229Z,90.55
2023-04-29T20:11:47.637Z,90.75
2023-04-29T20:16:53.336Z,90.63
2023-04-29T20:21:56.750Z,90.85
2023-04-29T20:27:00.182Z,90.69
2023-04-29T20:32:06.157Z,90.89
2023-04-29T20:37:09.784Z,90.91
2023-04-29T20:42:13.082Z,91.17
2023-04-29T20:47:17.688Z,90.93
2023-04-29T20:52:21.447Z,91.70
2023-04-29T20:57:25.979Z,92.31
2023-04-29T21:02:30.711Z,92.33
2023-04-29T21:07:34.050Z,92.50
2023-04-29T21:12:37.211Z,92.72
2023-04-29T21:17:41.878Z,93.75
2023-04-29T21:22:46.816Z,94.25
2023-04-29T21:27:50.149Z,93.69
2023-04-29T21:32:54.890Z,94.55
2023-04-29T21:37:58.715Z,94.48
2023-04-29T21:43:01.998Z,94.77
2023-04-29T21:48:14.624Z,95.29
2023-04-29T21:53:18.280Z,95.43
2023-04-29T21:58:21.399Z,95.59
2023-04-29T22:03:26.240Z,95.86
2023-04-29T22:08:29.650Z,96.26
2023-04-29T22:13:32.810Z,97.02
2023-04-29T22:18:37.706Z,97.67
2023-04-29T22:23:40.816Z,97.48
2023-04-29T22:28:44.064Z,98.12
2023-04-29T22:33:48.782Z,98.27
2023-04-29T22:38:52.080Z,98.57
2023-04-29T22:43:57.572Z,99.34
2023-04-29T22:49:02.334Z,98.91
2023-04-29T22:54:05.670Z,99.08
2023-04-29T22:59:08.825Z,99.14
2023-04-29T23:04:14.874Z,99.99
2023-04-29T23:09:18.209Z,100.00
2023-04-29T23:14:22.495Z,100.00
2023-04-29T23:19:27.248Z,100.00
2023-04-29T23:24:30.605Z,100.00
2023-04-29T23:29:35.172Z,100.00
2023-04-29T23:34:39.899Z,100.00
2023-04-29T23:39:43.102Z,100.00
2023-04-29T23:44:46.509Z,100.00
2023-04-29T23:49:51.102Z,100.00
2023-04-29T23:54:54.359Z,100.00
2023-04-29T23:59:57.592Z,100.00
